Time;durP1;ratioP1;P1;durP2;ratioP2;P2;SDS_P1;SDS_P2;PMS_P1;PMS_P2;Temp;Humidity;BMP_temperature;BMP_pressure;BME280_temperature;BME280_humidity;BME280_pressure;Samples;Min_cycle;Max_cycle;Signal;HPM_P1;HPM_P2
2023/12/06 00:01:22;;;;;;;;;;;;;;;-1.59;100.00;100554.69;5011878;28;19921;-76
2023/12/06 00:03:47;;;;;;;;;;;;;;;-1.59;100.00;100548.59;5012181;28;19967;-76
2023/12/06 00:06:13;;;;;;;;;;;;;;;-1.56;100.00;100543.88;5011659;28;20316;-76
2023/12/06 00:08:38;;;;;;;;;;;;;;;-1.56;100.00;100554.44;5011125;28;19976;-76
2023/12/06 00:11:04;;;;;;;;;;;;;;;-1.57;100.00;100544.00;5011507;28;19913;-76
2023/12/06 00:13:29;;;;;;;;;;;;;;;-1.58;100.00;100545.81;5011194;28;19968;-76
2023/12/06 00:15:54;;;;;;;;;;;;;;;-1.57;100.00;100547.47;5012771;28;19922;-75
2023/12/06 00:18:19;;;;;;;;;;;;;;;-1.60;100.00;100558.28;5014428;28;19968;-75
2023/12/06 00:20:44;;;;;;;;;;;;;;;-1.61;100.00;100555.78;5022187;28;19943;-76
2023/12/06 00:23:10;;;;;;;;;;;;;;;-1.63;100.00;100561.16;5010745;28;19926;-76
2023/12/06 00:25:35;;;;;;;;;;;;;;;-1.65;100.00;100555.16;5009348;28;19918;-76
2023/12/06 00:28:01;;;;;;;;;;;;;;;-1.63;100.00;100553.25;5011556;28;20357;-75
2023/12/06 00:30:26;;;;;;;;;;;;;;;-1.62;100.00;100556.75;5010399;28;19925;-76
2023/12/06 00:32:52;;;;;;;;;;;;;;;-1.63;100.00;100563.81;5007670;28;19964;-76
2023/12/06 00:35:17;;;;;;;;;;;;;;;-1.62;100.00;100562.84;5012471;28;20285;-75
2023/12/06 00:37:42;;;;;;;;;;;;;;;-1.63;100.00;100563.81;5011055;28;19925;-76
2023/12/06 00:40:08;;;;;;;;;;;;;;;-1.66;100.00;100569.34;5010583;28;20443;-75
2023/12/06 00:42:33;;;;;;;;;;;;;;;-1.65;100.00;100576.28;5011393;28;20373;-75
2023/12/06 00:44:58;;;;;;;;;;;;;;;-1.59;100.00;100575.81;5012029;28;19920;-76
2023/12/06 00:47:23;;;;;;;;;;;;;;;-1.59;100.00;100581.09;5012037;28;19926;-75
2023/12/06 00:49:49;;;;;;;;;;;;;;;-1.60;100.00;100584.69;5013187;28;19948;-76
2023/12/06 00:52:14;;;;;;;;;;;;;;;-1.58;100.00;100577.47;5011096;28;19922;-75
2023/12/06 00:54:39;;;;;;;;;;;;;;;-1.56;100.00;100582.63;5011902;28;19928;-76
2023/12/06 00:57:05;;;;;;;;;;;;;;;-1.58;100.00;100585.41;5012735;28;19913;-75
2023/12/06 00:59:30;;;;;;;;;;;;;;;-1.59;100.00;100585.53;5011508;28;20286;-76
2023/12/06 01:01:55;;;;;;;;;;;;;;;-1.56;100.00;100596.69;5028422;22;20317;-76
2023/12/06 01:04:21;;;;;;;;;;;;;;;-1.59;100.00;100596.09;5017165;28;19921;-75
2023/12/06 01:06:46;;;;;;;;;;;;;;;-1.57;100.00;100600.28;5015562;28;19926;-76
2023/12/06 01:09:11;;;;;;;;;;;;;;;-1.59;100.00;100590.81;5015968;28;19932;-75
2023/12/06 01:11:37;;;;;;;;;;;;;;;-1.57;100.00;100599.41;5015018;28;19921;-75
2023/12/06 01:14:02;;;;;;;;;;;;;;;-1.53;100.00;100599.06;5019128;28;19925;-75
2023/12/06 01:16:27;;;;;;;;;;;;;;;-1.53;100.00;100606.13;5018933;28;19925;-76
2023/12/06 01:18:53;;;;;;;;;;;;;;;-1.51;100.00;100604.22;5018097;28;19977;-76
2023/12/06 01:21:18;;;;;;;;;;;;;;;-1.52;100.00;100613.09;5015833;28;20010;-76
2023/12/06 01:23:43;;;;;;;;;;;;;;;-1.50;100.00;100615.63;5016272;28;19921;-76
2023/12/06 01:26:08;;;;;;;;;;;;;;;-1.53;100.00;100628.09;5015950;28;19945;-76
2023/12/06 01:28:34;;;;;;;;;;;;;;;-1.55;100.00;100618.63;5015642;28;19925;-76
2023/12/06 01:30:59;;;;;;;;;;;;;;;-1.52;100.00;100623.66;5014844;28;19925;-76
2023/12/06 01:33:24;;;;;;;;;;;;;;;-1.50;100.00;100624.38;5014342;28;19929;-76
2023/12/06 01:35:49;;;;;;;;;;;;;;;-1.51;100.00;100625.34;5014258;28;19926;-75
2023/12/06 01:38:15;;;;;;;;;;;;;;;-1.49;100.00;100628.69;5013464;28;19925;-76
2023/12/06 01:40:40;;;;;;;;;;;;;;;-1.49;100.00;100633.97;5015170;28;19929;-76
2023/12/06 01:43:05;;;;;;;;;;;;;;;-1.49;100.00;100627.84;5013013;28;19926;-75
2023/12/06 01:45:34;;;;;;;;;;;;;;;-1.46;100.00;100630.22;5014550;28;19921;-75
2023/12/06 01:47:59;;;;;;;;;;;;;;;-1.46;100.00;100639.00;5013060;28;19921;-76
2023/12/06 01:50:24;;;;;;;;;;;;;;;-1.45;100.00;100639.84;5013829;28;20012;-75
2023/12/06 01:52:50;;;;;;;;;;;;;;;-1.50;100.00;100642.84;4994781;28;19940;-75
2023/12/06 01:55:15;;;;;;;;;;;;;;;-1.48;100.00;100633.00;5028089;28;19932;-75
2023/12/06 01:57:40;;;;;;;;;;;;;;;-1.49;100.00;100643.69;5012822;28;20016;-75
2023/12/06 02:00:07;;;;;;;;;;;;;;;-1.50;100.00;100644.66;5013930;28;20022;-75
2023/12/06 02:02:32;;;;;;;;;;;;;;;-1.48;100.00;100643.56;5013875;28;19953;-75
2023/12/06 02:05:00;;;;;;;;;;;;;;;-1.51;100.00;100654.38;5013456;28;19945;-75
2023/12/06 02:07:26;;;;;;;;;;;;;;;-1.51;100.00;100650.91;5013716;28;19921;-77
2023/12/06 02:09:51;;;;;;;;;;;;;;;-1.53;100.00;100658.94;4994874;28;19955;-76
2023/12/06 02:12:16;;;;;;;;;;;;;;;-1.56;100.00;100654.75;5013117;28;19929;-76
2023/12/06 02:14:41;;;;;;;;;;;;;;;-1.54;100.00;100655.47;5012743;28;19921;-77
2023/12/06 02:17:07;;;;;;;;;;;;;;;-1.54;100.00;100662.53;5013021;28;19944;-76
2023/12/06 02:19:35;;;;;;;;;;;;;;;-1.55;100.00;100660.84;4995382;28;19922;-76
2023/12/06 02:22:00;;;;;;;;;;;;;;;-1.59;100.00;100662.91;4995480;28;20297;-76
2023/12/06 02:24:25;;;;;;;;;;;;;;;-1.57;100.00;100668.06;4994592;28;19926;-77
2023/12/06 02:26:52;;;;;;;;;;;;;;;-1.63;100.00;100666.75;5012817;28;19921;-77
2023/12/06 02:29:18;;;;;;;;;;;;;;;-1.59;100.00;100665.56;5013793;28;20011;-76
2023/12/06 02:31:43;;;;;;;;;;;;;;;-1.62;100.00;100665.78;5012401;28;19965;-76
2023/12/06 02:34:10;;;;;;;;;;;;;;;-1.60;100.00;100665.69;5014215;28;20288;-77
2023/12/06 02:36:35;;;;;;;;;;;;;;;-1.62;100.00;100667.59;5017572;28;19932;-76
2023/12/06 02:39:00;;;;;;;;;;;;;;;-1.60;100.00;100674.44;5024770;28;19921;-76
2023/12/06 02:41:25;;;;;;;;;;;;;;;-1.63;100.00;100672.03;5019397;28;19932;-77
2023/12/06 02:43:50;;;;;;;;;;;;;;;-1.64;100.00;100677.44;5025188;28;20009;-77
2023/12/06 02:46:16;;;;;;;;;;;;;;;-1.65;100.00;100681.03;4994233;28;20336;-77
2023/12/06 02:48:41;;;;;;;;;;;;;;;-1.68;100.00;100669.75;5012982;28;20020;-77
2023/12/06 02:51:06;;;;;;;;;;;;;;;-1.68;100.00;100672.41;5012304;28;19928;-76
2023/12/06 02:53:31;;;;;;;;;;;;;;;-1.69;100.00;100680.44;5011651;28;20479;-76
2023/12/06 02:55:57;;;;;;;;;;;;;;;-1.64;100.00;100682.72;5012277;28;19926;-76
2023/12/06 02:58:22;;;;;;;;;;;;;;;-1.64;100.00;100685.34;5012590;28;19925;-77
2023/12/06 03:00:47;;;;;;;;;;;;;;;-1.65;100.00;100683.69;5010581;28;19925;-76
2023/12/06 03:03:15;;;;;;;;;;;;;;;-1.64;100.00;100685.34;5014118;28;20327;-76
2023/12/06 03:05:40;;;;;;;;;;;;;;;-1.63;100.00;100684.41;5012838;28;19968;-76
2023/12/06 03:08:05;;;;;;;;;;;;;;;-1.63;100.00;100689.69;5012916;28;19980;-76
2023/12/06 03:10:31;;;;;;;;;;;;;;;-1.61;100.00;100688.59;5014777;28;19922;-76
2023/12/06 03:12:56;;;;;;;;;;;;;;;-1.62;100.00;100686.06;5016533;28;19932;-76
2023/12/06 03:15:24;;;;;;;;;;;;;;;-1.60;100.00;100678.88;5015509;28;19925;-76
2023/12/06 03:17:49;;;;;;;;;;;;;;;-1.59;100.00;100689.31;5021894;28;19965;-76
2023/12/06 03:20:15;;;;;;;;;;;;;;;-1.56;100.00;100681.16;5016552;28;19925;-76
2023/12/06 03:22:40;;;;;;;;;;;;;;;-1.54;100.00;100681.00;5014744;28;20377;-76
2023/12/06 03:25:07;;;;;;;;;;;;;;;-1.53;100.00;100690.63;5013918;28;20293;-76
2023/12/06 03:27:32;;;;;;;;;;;;;;;-1.50;100.00;100684.28;5012705;28;20378;-76
2023/12/06 03:29:57;;;;;;;;;;;;;;;-1.47;100.00;100692.78;5011983;28;19929;-76
2023/12/06 03:32:23;;;;;;;;;;;;;;;-1.45;100.00;100698.78;5012600;28;19921;-76
2023/12/06 03:34:48;;;;;;;;;;;;;;;-1.42;100.00;100695.03;5012219;28;19944;-76
2023/12/06 03:37:13;;;;;;;;;;;;;;;-1.41;100.00;100699.38;5011538;28;19921;-76
2023/12/06 03:39:38;;;;;;;;;;;;;;;-1.41;100.00;100694.91;5011650;28;19960;-76
2023/12/06 03:42:04;;;;;;;;;;;;;;;-1.38;100.00;100699.94;5012086;28;19921;-76
2023/12/06 03:44:29;;;;;;;;;;;;;;;-1.35;100.00;100698.88;5011539;28;19929;-76
2023/12/06 03:46:54;;;;;;;;;;;;;;;-1.33;100.00;100707.53;5013681;28;19922;-76
2023/12/06 03:49:19;;;;;;;;;;;;;;;-1.33;100.00;100707.53;5017623;28;19936;-77
2023/12/06 03:51:44;;;;;;;;;;;;;;;-1.30;100.00;100711.72;5019806;28;19921;-76
2023/12/06 03:54:10;;;;;;;;;;;;;;;-1.30;100.00;100706.44;5015389;28;19944;-76
2023/12/06 03:56:35;;;;;;;;;;;;;;;-1.27;100.00;100714.09;5016033;28;19925;-76
2023/12/06 03:59:00;;;;;;;;;;;;;;;-1.24;100.00;100714.69;5012119;28;19928;-76
2023/12/06 04:01:25;;;;;;;;;;;;;;;-1.23;100.00;100712.88;5011173;28;20343;-77
2023/12/06 04:03:51;;;;;;;;;;;;;;;-1.20;100.00;100717.91;5011851;28;20353;-76
2023/12/06 04:06:16;;;;;;;;;;;;;;;-1.22;100.00;100710.13;5012175;28;20304;-76
2023/12/06 04:08:41;;;;;;;;;;;;;;;-1.19;100.00;100713.50;5012416;28;19918;-77
2023/12/06 04:11:06;;;;;;;;;;;;;;;-1.16;100.00;100714.06;5012074;28;19925;-76
2023/12/06 04:13:32;;;;;;;;;;;;;;;-1.16;100.00;100719.34;5011264;28;19928;-76
2023/12/06 04:15:57;;;;;;;;;;;;;;;-1.12;100.00;100719.94;5015686;28;20023;-76
2023/12/06 04:18:22;;;;;;;;;;;;;;;-1.11;100.00;100719.84;5018677;28;20297;-77
2023/12/06 04:20:47;;;;;;;;;;;;;;;-1.10;100.00;100718.88;5014464;28;19921;-76
2023/12/06 04:23:12;;;;;;;;;;;;;;;-1.08;100.00;100714.31;5012262;28;19944;-76
2023/12/06 04:25:38;;;;;;;;;;;;;;;-1.07;100.00;100729.19;5012553;28;19917;-77
2023/12/06 04:28:03;;;;;;;;;;;;;;;-1.03;100.00;100718.34;5011547;28;19921;-76
2023/12/06 04:30:28;;;;;;;;;;;;;;;-1.03;100.00;100729.78;5012454;28;19922;-76
2023/12/06 04:32:53;;;;;;;;;;;;;;;-1.01;100.00;100721.72;5010544;28;19928;-76
2023/12/06 04:35:19;;;;;;;;;;;;;;;-0.96;100.00;100725.66;5011827;28;19963;-77
2023/12/06 04:37:44;;;;;;;;;;;;;;;-0.95;100.00;100722.06;5013010;28;19931;-77
2023/12/06 04:40:09;;;;;;;;;;;;;;;-0.92;100.00;100727.09;5014006;28;19917;-76
2023/12/06 04:42:35;;;;;;;;;;;;;;;-0.90;100.00;100740.19;5016209;28;20584;-76
2023/12/06 04:45:03;;;;;;;;;;;;;;;-0.90;100.00;100734.91;5015920;28;20016;-76
2023/12/06 04:47:28;;;;;;;;;;;;;;;-0.83;100.00;100745.81;5001716;28;20261;-75
2023/12/06 04:52:19;;;;;;;;;;;;;;;-0.80;100.00;100746.41;5016752;23;20273;-75
2023/12/06 04:54:44;;;;;;;;;;;;;;;-0.79;100.00;100750.72;5012413;28;19925;-76
2023/12/06 04:57:09;;;;;;;;;;;;;;;-0.74;100.00;100749.50;5011971;28;20012;-76
2023/12/06 04:59:37;;;;;;;;;;;;;;;-0.72;100.00;100752.88;5011853;28;19962;-75
2023/12/06 05:02:03;;;;;;;;;;;;;;;-0.72;100.00;100752.88;5010140;23;19938;-75
2023/12/06 05:04:28;;;;;;;;;;;;;;;-0.70;100.00;100756.19;4989391;28;19921;-76
2023/12/06 05:06:53;;;;;;;;;;;;;;;-0.70;100.00;100761.50;4978427;28;19989;-75
2023/12/06 05:09:18;;;;;;;;;;;;;;;-0.65;100.00;100760.19;4987592;28;19993;-75
2023/12/06 05:11:44;;;;;;;;;;;;;;;-0.63;100.00;100768.81;4989615;28;19926;-76
2023/12/06 05:14:09;;;;;;;;;;;;;;;-0.60;100.00;100762.44;4986369;28;19929;-76
2023/12/06 05:16:34;;;;;;;;;;;;;;;-0.59;100.00;100763.25;4991677;28;19929;-76
2023/12/06 05:18:59;;;;;;;;;;;;;;;-0.60;100.00;100767.72;4981041;28;20362;-76
2023/12/06 05:21:25;;;;;;;;;;;;;;;-0.61;100.00;100769.50;4975670;28;20370;-76
2023/12/06 05:23:50;;;;;;;;;;;;;;;-0.60;100.00;100773.00;4977441;28;20031;-74
2023/12/06 05:26:15;;;;;;;;;;;;;;;-0.58;100.00;100776.38;4982305;28;19926;-76
2023/12/06 05:28:41;;;;;;;;;;;;;;;-0.58;100.00;100776.38;4992742;28;19928;-76
2023/12/06 05:31:06;;;;;;;;;;;;;;;-0.55;100.00;100780.56;4979201;28;19930;-76
2023/12/06 05:33:31;;;;;;;;;;;;;;;-0.54;100.00;100779.59;4976050;28;19921;-77
2023/12/06 05:35:56;;;;;;;;;;;;;;;-0.50;100.00;100779.19;4982581;28;19929;-77
2023/12/06 05:38:22;;;;;;;;;;;;;;;-0.53;100.00;100782.09;4995088;28;20015;-76
2023/12/06 05:40:47;;;;;;;;;;;;;;;-0.49;100.00;100782.69;4974437;28;19960;-77
2023/12/06 05:43:12;;;;;;;;;;;;;;;-0.51;100.00;100777.53;4982057;28;19967;-77
2023/12/06 05:45:38;;;;;;;;;;;;;;;-0.48;100.00;100787.03;4983217;28;19922;-76
2023/12/06 05:48:04;;;;;;;;;;;;;;;-0.53;100.00;100784.75;4992109;28;20378;-76
2023/12/06 05:50:29;;;;;;;;;;;;;;;-0.52;100.00;100783.78;4988902;28;19945;-76
2023/12/06 05:52:55;;;;;;;;;;;;;;;-0.55;100.00;100786.69;4989541;28;20382;-77
2023/12/06 05:55:20;;;;;;;;;;;;;;;-0.49;100.00;100793.28;4986988;28;19975;-77
2023/12/06 05:57:45;;;;;;;;;;;;;;;-0.51;100.00;100790.75;4996793;28;20020;-77
2023/12/06 06:00:12;;;;;;;;;;;;;;;-0.52;100.00;100791.72;4986857;28;20384;-77
2023/12/06 06:02:38;;;;;;;;;;;;;;;-0.51;100.00;100801.31;4989557;28;20079;-77
2023/12/06 06:05:03;;;;;;;;;;;;;;;-0.48;100.00;100801.06;4999811;28;20395;-77
2023/12/06 06:07:28;;;;;;;;;;;;;;;-0.48;100.00;100805.53;4982929;28;19922;-77
2023/12/06 06:09:54;;;;;;;;;;;;;;;-0.48;100.00;100808.19;4987370;28;19923;-77
2023/12/06 06:12:19;;;;;;;;;;;;;;;-0.47;100.00;100810.69;4983524;28;20362;-77
2023/12/06 06:14:44;;;;;;;;;;;;;;;-0.47;100.00;100821.28;4988931;28;20396;-77
2023/12/06 06:17:09;;;;;;;;;;;;;;;-0.48;100.00;100822.22;4985378;28;20370;-77
2023/12/06 06:19:37;;;;;;;;;;;;;;;-0.44;100.00;100821.97;4993734;28;19930;-77
2023/12/06 06:22:03;;;;;;;;;;;;;;;-0.43;100.00;100831.59;4984485;28;19926;-77
2023/12/06 06:24:28;;;;;;;;;;;;;;;-0.43;100.00;100826.31;4983951;28;19929;-77
2023/12/06 06:26:53;;;;;;;;;;;;;;;-0.44;100.00;100836.03;4996999;28;19929;-77
2023/12/06 06:29:18;;;;;;;;;;;;;;;-0.43;100.00;100836.88;4983443;28;19922;-77
2023/12/06 06:31:46;;;;;;;;;;;;;;;-0.36;100.00;100827.50;4995850;28;19945;-78
2023/12/06 06:34:11;;;;;;;;;;;;;;;-0.36;100.00;100832.78;4995575;28;20050;-77
2023/12/06 06:36:36;;;;;;;;;;;;;;;-0.35;100.00;100845.03;4983407;28;19975;-77
2023/12/06 06:39:02;;;;;;;;;;;;;;;-0.35;100.00;100839.72;4989315;28;19922;-77
2023/12/06 06:41:27;;;;;;;;;;;;;;;-0.32;100.00;100844.78;4981394;28;19972;-77
2023/12/06 06:43:52;;;;;;;;;;;;;;;-0.33;100.00;100843.94;4989915;28;19929;-77
2023/12/06 06:46:17;;;;;;;;;;;;;;;-0.31;100.00;100846.47;4987856;28;19935;-77
2023/12/06 06:48:43;;;;;;;;;;;;;;;-0.28;100.00;100846.22;4997337;28;20365;-77
2023/12/06 06:51:09;;;;;;;;;;;;;;;-0.27;100.00;100845.25;4988708;28;20366;-77
2023/12/06 06:53:34;;;;;;;;;;;;;;;-0.26;100.00;100840.78;4995400;28;19938;-77
2023/12/06 06:56:00;;;;;;;;;;;;;;;-0.27;100.00;100849.72;4992168;28;19933;-76
2023/12/06 06:58:25;;;;;;;;;;;;;;;-0.26;100.00;100852.22;4988750;28;20370;-76
2023/12/06 07:00:50;;;;;;;;;;;;;;;-0.24;100.00;100842.34;4988786;28;20001;-76
2023/12/06 07:03:15;;;;;;;;;;;;;;;-0.22;100.00;100848.34;4987753;28;20516;-77
2023/12/06 07:05:43;;;;;;;;;;;;;;;-0.17;100.00;100851.44;4988497;28;20465;-77
2023/12/06 07:08:09;;;;;;;;;;;;;;;-0.14;100.00;100846.88;4983284;28;19965;-77
2023/12/06 07:10:37;;;;;;;;;;;;;;;-0.12;100.00;100856.38;4993388;28;19973;-77
2023/12/06 07:13:02;;;;;;;;;;;;;;;-0.07;100.00;100859.47;4990623;28;19922;-76
2023/12/06 07:15:27;;;;;;;;;;;;;;;-0.05;100.00;100864.66;4981210;28;19929;-76
2023/12/06 07:17:53;;;;;;;;;;;;;;;-0.02;100.00;100872.34;4991469;28;19926;-76
2023/12/06 07:20:18;;;;;;;;;;;;;;;0.01;100.00;100872.06;4988958;28;20456;-76
2023/12/06 07:22:43;;;;;;;;;;;;;;;0.01;100.00;100872.06;4982549;28;20370;-76
2023/12/06 07:25:08;;;;;;;;;;;;;;;0.04;100.00;100873.63;4987207;28;19922;-76
2023/12/06 07:27:34;;;;;;;;;;;;;;;0.07;100.00;100879.50;4981943;28;20426;-77
2023/12/06 07:29:59;;;;;;;;;;;;;;;0.13;100.00;100886.94;4997306;28;20382;-77
2023/12/06 07:32:27;;;;;;;;;;;;;;;0.15;100.00;100886.78;4988348;28;20350;-77
2023/12/06 07:34:52;;;;;;;;;;;;;;;0.20;100.00;100895.22;4981243;28;20373;-78
2023/12/06 07:37:18;;;;;;;;;;;;;;;0.20;100.00;100897.00;4991526;28;19922;-77
2023/12/06 07:39:43;;;;;;;;;;;;;;;0.22;100.00;100893.28;4988870;28;20010;-77
2023/12/06 07:42:09;;;;;;;;;;;;;;;0.22;100.00;100895.06;4988398;28;20024;-77
2023/12/06 07:44:35;;;;;;;;;;;;;;;0.27;100.00;100898.19;4985749;28;19925;-78
2023/12/06 07:47:00;;;;;;;;;;;;;;;0.30;100.00;100900.56;4996218;28;19929;-77
2023/12/06 07:49:25;;;;;;;;;;;;;;;0.31;100.00;100910.19;4980293;28;19922;-77
2023/12/06 07:51:55;;;;;;;;;;;;;;;0.32;100.00;100905.72;4989373;28;20330;-77
2023/12/06 07:54:22;;;;;;;;;;;;;;;0.33;100.00;100908.25;4980000;28;19930;-77
2023/12/06 07:56:48;;;;;;;;;;;;;;;0.35;100.00;100913.41;4990077;28;20016;-77
2023/12/06 07:59:13;;;;;;;;;;;;;;;0.37;100.00;100920.25;4994132;28;19949;-78
2023/12/06 08:01:38;;;;;;;;;;;;;;;0.40;100.00;100924.47;4990310;28;19926;-77
2023/12/06 08:04:03;;;;;;;;;;;;;;;0.44;100.00;100921.44;4981170;28;19991;-78
2023/12/06 08:06:29;;;;;;;;;;;;;;;0.49;100.00;100930.81;4988489;28;19922;-77
2023/12/06 08:08:54;;;;;;;;;;;;;;;0.49;100.00;100931.63;4995158;28;19921;-77
2023/12/06 08:11:19;;;;;;;;;;;;;;;0.53;100.00;100932.22;4992461;28;19933;-78
2023/12/06 08:13:46;;;;;;;;;;;;;;;0.52;100.00;100935.84;4994006;28;19926;-77
2023/12/06 08:16:11;;;;;;;;;;;;;;;0.53;100.00;100935.72;4983087;28;19922;-77
2023/12/06 08:18:36;;;;;;;;;;;;;;;0.56;100.00;100945.19;4986694;28;19948;-82
2023/12/06 08:21:07;;;;;;;;;;;;;;;0.55;100.00;100948.81;4980156;28;19922;-79
2023/12/06 08:23:32;;;;;;;;;;;;;;;0.55;100.00;100946.16;4982374;28;19921;-78
2023/12/06 08:26:00;;;;;;;;;;;;;;;0.55;100.00;100946.16;4981610;28;20327;-79
2023/12/06 08:28:26;;;;;;;;;;;;;;;0.60;100.00;100934.22;4985737;28;20072;-78
2023/12/06 08:30:51;;;;;;;;;;;;;;;0.58;100.00;100944.13;4994481;28;19953;-78
2023/12/06 08:33:19;;;;;;;;;;;;;;;0.60;100.00;100942.19;4984365;28;20378;-78
2023/12/06 08:35:44;;;;;;;;;;;;;;;0.64;100.00;100942.75;4979050;28;20017;-78
2023/12/06 08:38:09;;;;;;;;;;;;;;;0.67;100.00;100945.16;4981345;28;20045;-78
2023/12/06 08:40:34;;;;;;;;;;;;;;;0.70;100.00;100950.19;4981260;28;19980;-79
2023/12/06 08:43:00;;;;;;;;;;;;;;;0.74;100.00;100954.25;4980712;28;19926;-79
2023/12/06 08:45:25;;;;;;;;;;;;;;;0.73;100.00;100957.03;4988023;28;19975;-79
2023/12/06 08:47:50;;;;;;;;;;;;;;;0.77;100.00;100957.59;4982149;28;19937;-78
2023/12/06 08:50:18;;;;;;;;;;;;;;;0.75;100.00;100950.63;4979318;28;19941;-78
2023/12/06 08:52:47;;;;;;;;;;;;;;;0.78;100.00;100951.34;4984440;28;19922;-78
2023/12/06 08:55:12;;;;;;;;;;;;;;;0.83;100.00;100962.41;4981668;28;20293;-77
2023/12/06 08:57:37;;;;;;;;;;;;;;;0.83;100.00;100963.22;4988419;28;19921;-79
2023/12/06 09:00:07;;;;;;;;;;;;;;;0.84;100.00;100956.13;4981239;28;20020;-78
2023/12/06 09:02:33;;;;;;;;;;;;;;;0.84;100.00;100954.31;4981748;28;19922;-80
2023/12/06 09:04:58;;;;;;;;;;;;;;;0.88;100.00;100954.91;4977814;28;19928;-80
2023/12/06 09:07:24;;;;;;;;;;;;;;;0.91;100.00;100959.91;4976133;28;19925;-79
2023/12/06 09:09:52;;;;;;;;;;;;;;;0.96;100.00;100957.72;4983945;28;19984;-80
2023/12/06 09:12:18;;;;;;;;;;;;;;;0.98;100.00;100962.88;4983790;28;19921;-80
2023/12/06 09:14:43;;;;;;;;;;;;;;;1.06;100.00;100958.59;4978560;28;19932;-80
2023/12/06 09:17:08;;;;;;;;;;;;;;;1.11;100.00;100960.88;4983390;28;19957;-80
2023/12/06 09:19:34;;;;;;;;;;;;;;;1.11;100.00;100960.88;4978303;28;19933;-82
2023/12/06 09:21:59;;;;;;;;;;;;;;;1.12;100.00;100967.84;4981727;28;19930;-82
2023/12/06 09:24:24;;;;;;;;;;;;;;;1.13;100.00;100974.00;4990553;28;19922;-82
2023/12/06 09:26:50;;;;;;;;;;;;;;;1.17;100.00;100978.06;4987533;28;19922;-81
2023/12/06 09:29:15;;;;;;;;;;;;;;;1.19;100.00;100982.25;4995075;23;19925;-79
2023/12/06 09:31:40;;;;;;;;;;;;;;;1.23;100.00;100982.84;4991223;28;19925;-80
2023/12/06 09:34:06;;;;;;;;;;;;;;;1.24;100.00;100991.63;4987672;28;19932;-80
2023/12/06 09:36:32;;;;;;;;;;;;;;;1.23;100.00;100985.50;4990853;28;20016;-79
2023/12/06 09:38:57;;;;;;;;;;;;;;;1.27;100.00;100997.50;5008966;28;19929;-79
2023/12/06 09:41:24;;;;;;;;;;;;;;;1.30;100.00;101002.53;4992284;28;19929;-79
2023/12/06 09:43:50;;;;;;;;;;;;;;;1.36;100.00;100993.22;4992542;28;19930;-81
2023/12/06 09:46:16;;;;;;;;;;;;;;;1.49;100.00;100999.16;4991647;28;19926;-81
2023/12/06 09:48:41;;;;;;;;;;;;;;;1.48;100.00;101004.56;4989644;28;19922;-80
2023/12/06 09:51:06;;;;;;;;;;;;;;;1.51;100.00;101009.63;4983711;28;19937;-79
2023/12/06 09:53:31;;;;;;;;;;;;;;;1.52;100.00;101006.00;4987123;28;19934;-81
2023/12/06 09:55:57;;;;;;;;;;;;;;;1.58;100.00;101005.47;4989158;28;19952;-78
2023/12/06 09:58:25;;;;;;;;;;;;;;;1.58;100.00;101005.47;4991927;28;19921;-80
2023/12/06 10:00:50;;;;;;;;;;;;;;;1.61;100.00;101007.81;4989651;28;19960;-80
2023/12/06 10:03:15;;;;;;;;;;;;;;;1.73;100.00;101005.09;4990484;28;19973;-78
2023/12/06 10:05:41;;;;;;;;;;;;;;;1.75;100.00;101005.78;4993028;28;20258;-76
2023/12/06 10:08:06;;;;;;;;;;;;;;;1.81;100.00;101005.22;4994073;28;19930;-78
2023/12/06 10:10:31;;;;;;;;;;;;;;;1.83;100.00;101011.25;4992506;28;20028;-78
2023/12/06 10:12:57;;;;;;;;;;;;;;;1.84;100.00;101020.06;4997933;23;19926;-78
2023/12/06 10:15:22;;;;;;;;;;;;;;;1.86;100.00;101013.63;4992956;28;19922;-79
2023/12/06 10:17:47;;;;;;;;;;;;;;;1.89;100.00;101016.03;4992081;28;20294;-77
2023/12/06 10:20:13;;;;;;;;;;;;;;;1.97;100.00;101013.50;4993108;28;20012;-79
2023/12/06 10:22:41;;;;;;;;;;;;;;;1.92;100.00;101023.72;4995829;28;20076;-83
2023/12/06 10:25:07;;;;;;;;;;;;;;;1.90;100.00;101015.06;4992483;28;19980;-75
2023/12/06 10:27:34;;;;;;;;;;;;;;;1.94;100.00;101013.78;4992727;28;20364;-78
2023/12/06 10:30:00;;;;;;;;;;;;;;;1.96;100.00;101018.97;4993724;28;19922;-76
2023/12/06 10:32:25;;;;;;;;;;;;;;;2.02;100.00;101020.25;4992306;28;19936;-75
2023/12/06 10:34:50;;;;;;;;;;;;;;;2.07;100.00;101016.19;4994057;28;19926;-79
2023/12/06 10:37:18;;;;;;;;;;;;;;;2.06;100.00;101017.16;5000589;28;19925;-75
2023/12/06 10:39:44;;;;;;;;;;;;;;;2.12;100.00;101007.81;4994041;28;20429;-77
2023/12/06 10:42:12;;;;;;;;;;;;;;;2.21;100.00;101012.31;4981658;28;20123;-78
2023/12/06 10:44:37;;;;;;;;;;;;;;;2.36;100.00;101009.22;4978128;28;20313;-77
2023/12/06 10:47:04;;;;;;;;;;;;;;;2.49;100.00;101009.78;4993847;28;19925;-77
2023/12/06 10:49:29;;;;;;;;;;;;;;;2.70;100.00;101012.31;4996164;28;19949;-78
2023/12/06 10:51:54;;;;;;;;;;;;;;;2.67;100.00;101015.25;4976790;28;19921;-77
2023/12/06 10:54:20;;;;;;;;;;;;;;;2.70;100.00;101017.63;4971806;28;19929;-78
2023/12/06 10:56:47;;;;;;;;;;;;;;;2.72;100.00;101021.00;4969589;28;20330;-77
2023/12/06 10:59:13;;;;;;;;;;;;;;;2.72;100.00;101017.47;4982716;28;19945;-77
2023/12/06 11:01:39;;;;;;;;;;;;;;;2.71;100.00;101026.44;4967778;28;20429;-77
2023/12/06 11:04:05;;;;;;;;;;;;;;;2.84;100.00;101024.31;4968717;28;19953;-76
2023/12/06 11:06:42;;;;;;;;;;;;;;;2.89;100.00;101026.56;4997312;28;19968;-77
2023/12/06 11:09:13;;;;;;;;;;;;;;;2.83;100.00;101027.94;4985175;28;19936;-77
2023/12/06 11:11:41;;;;;;;;;;;;;;;2.70;100.00;101022.94;4968196;28;19972;-76
2023/12/06 11:14:19;;;;;;;;;;;;;;;2.61;100.00;101022.94;4989377;28;20313;-76
2023/12/06 11:17:04;;;;;;;;;;;;;;;2.47;100.00;101022.38;4989718;28;19921;-78
2023/12/06 11:19:30;;;;;;;;;;;;;;;2.47;100.00;101021.53;4992275;28;19926;-76
2023/12/06 11:21:55;;;;;;;;;;;;;;;2.46;100.00;101022.53;5002104;28;19932;-76
2023/12/06 11:24:20;;;;;;;;;;;;;;;2.38;100.00;101018.72;5001221;28;20033;-75
2023/12/06 11:26:45;;;;;;;;;;;;;;;2.46;100.00;101020.72;4985698;28;19922;-76
2023/12/06 11:29:11;;;;;;;;;;;;;;;2.53;100.00;101016.50;4983810;28;20342;-78
2023/12/06 11:31:37;;;;;;;;;;;;;;;2.60;100.00;101011.47;4964436;28;19992;-78
2023/12/06 11:34:05;;;;;;;;;;;;;;;2.59;100.00;101017.75;4984541;28;19933;-78
2023/12/06 11:36:31;;;;;;;;;;;;;;;2.58;100.00;101019.59;4985291;28;20187;-78
2023/12/06 11:38:56;;;;;;;;;;;;;;;2.57;100.00;101017.06;4987316;28;19922;-76
2023/12/06 11:41:21;;;;;;;;;;;;;;;2.67;100.00;101023.22;4982115;28;19926;-76
2023/12/06 11:43:47;;;;;;;;;;;;;;;2.54;100.00;101018.19;4988373;28;19934;-76
2023/12/06 11:46:13;;;;;;;;;;;;;;;2.58;100.00;101019.59;5005193;28;19921;-77
2023/12/06 11:48:43;;;;;;;;;;;;;;;2.53;100.00;101031.63;4987890;28;20295;-78
2023/12/06 11:51:16;;;;;;;;;;;;;;;2.66;100.00;101026.00;4988355;28;19928;-78
2023/12/06 11:53:41;;;;;;;;;;;;;;;2.58;100.00;101032.88;4988666;28;19937;-77
2023/12/06 11:56:08;;;;;;;;;;;;;;;2.58;100.00;101032.88;4983545;28;19925;-77
2023/12/06 11:58:34;;;;;;;;;;;;;;;2.58;100.00;101019.59;4982624;28;19926;-77
2023/12/06 12:01:01;;;;;;;;;;;;;;;2.64;100.00;101022.69;4970594;28;19937;-76
2023/12/06 12:03:27;;;;;;;;;;;;;;;2.94;100.00;101034.13;4989873;28;20343;-77
2023/12/06 12:05:52;;;;;;;;;;;;;;;3.19;100.00;101033.47;4972160;28;19932;-77
2023/12/06 12:08:18;;;;;;;;;;;;;;;3.46;100.00;101039.88;4972197;28;19930;-77
2023/12/06 12:10:43;;;;;;;;;;;;;;;4.17;100.00;101039.38;4971787;28;19998;-77
2023/12/06 12:13:37;;;;;;;;;;;;;;;4.46;100.00;101035.66;4989211;28;20282;-77
2023/12/06 12:16:02;;;;;;;;;;;;;;;4.66;100.00;101037.19;4992546;28;19921;-77
2023/12/06 12:18:28;;;;;;;;;;;;;;;5.06;100.00;101036.81;4992702;28;19961;-77
2023/12/06 12:20:54;;;;;;;;;;;;;;;5.74;100.00;101043.22;5009220;28;19933;-77
2023/12/06 12:23:22;;;;;;;;;;;;;;;5.75;100.00;101042.22;4992352;28;20021;-77
2023/12/06 12:25:50;;;;;;;;;;;;;;;5.41;100.00;101051.06;4990967;28;19928;-77